createdAt,value
2023-05-02T00:01:07.361Z,9.57
2023-05-02T00:03:56.477Z,9.59
2023-05-02T00:06:46.669Z,9.48
2023-05-02T00:09:36.098Z,9.36
2023-05-02T00:12:25.101Z,9.11
2023-05-02T00:15:15.309Z,8.99
2023-05-02T00:18:04.402Z,8.96
2023-05-02T00:20:53.321Z,8.85
2023-05-02T00:23:42.286Z,8.74
2023-05-02T00:26:31.442Z,8.80
2023-05-02T00:29:23.286Z,9.00
2023-05-02T00:32:13.449Z,8.98
2023-05-02T00:35:02.271Z,8.83
2023-05-02T00:37:51.809Z,8.86
2023-05-02T00:40:48.258Z,9.05
2023-05-02T00:43:39.503Z,9.20
2023-05-02T00:46:28.797Z,9.18
2023-05-02T00:49:19.192Z,9.21
2023-05-02T00:52:08.742Z,8.97
2023-05-02T00:54:58.452Z,8.84
2023-05-02T00:57:48.349Z,8.95
2023-05-02T01:01:00.373Z,9.07
2023-05-02T01:04:05.969Z,9.15
2023-05-02T01:07:16.616Z,9.16
2023-05-02T01:10:35.902Z,8.97
2023-05-02T01:13:32.975Z,8.81
2023-05-02T01:16:25.286Z,8.65
2023-05-02T01:19:27.320Z,8.49
2023-05-02T01:22:20.964Z,8.39
2023-05-02T01:25:30.437Z,8.33
2023-05-02T01:28:50.765Z,8.21
2023-05-02T01:31:43.859Z,8.12
2023-05-02T01:34:37.278Z,8.19
2023-05-02T01:37:28.672Z,8.12
2023-05-02T01:40:22.656Z,8.17
2023-05-02T01:43:14.044Z,8.09
2023-05-02T01:46:09.829Z,8.25
2023-05-02T01:49:02.974Z,8.13
2023-05-02T01:51:53.213Z,8.02
2023-05-02T01:54:43.961Z,8.02
2023-05-02T01:57:33.629Z,8.00
2023-05-02T02:00:25.083Z,8.06
2023-05-02T02:03:16.692Z,8.18
2023-05-02T02:06:08.165Z,8.26
2023-05-02T02:08:57.120Z,8.37
2023-05-02T02:11:53.587Z,8.37
2023-05-02T02:14:50.795Z,8.32
2023-05-02T02:17:44.867Z,8.35
2023-05-02T02:20:37.360Z,8.33
2023-05-02T02:23:30.191Z,8.33
2023-05-02T02:26:22.148Z,8.35
2023-05-02T02:29:11.381Z,8.35
2023-05-02T02:32:00.175Z,8.27
2023-05-02T02:34:49.135Z,8.03
2023-05-02T02:37:48.684Z,7.97
2023-05-02T02:40:49.151Z,7.87
2023-05-02T02:43:49.148Z,7.90
2023-05-02T02:46:52.109Z,7.99
2023-05-02T02:49:52.506Z,8.06
2023-05-02T02:52:55.850Z,8.14
2023-05-02T02:55:54.439Z,8.22
2023-05-02T02:58:56.474Z,8.04
2023-05-02T03:02:02.647Z,8.10
2023-05-02T03:04:54.922Z,8.06
2023-05-02T03:07:45.572Z,8.10
2023-05-02T03:10:35.568Z,8.07
2023-05-02T03:13:24.674Z,8.08
2023-05-02T03:16:37.125Z,7.95
2023-05-02T03:19:28.917Z,7.92
2023-05-02T03:22:18.735Z,7.73
2023-05-02T03:25:10.734Z,7.73
2023-05-02T03:28:03.654Z,7.66
2023-05-02T03:30:52.584Z,7.47
2023-05-02T03:33:42.352Z,7.32
2023-05-02T03:36:31.571Z,7.28
2023-05-02T03:39:20.609Z,7.28
2023-05-02T03:42:12.132Z,7.34
2023-05-02T03:45:01.131Z,7.57
2023-05-02T03:47:50.817Z,7.54
2023-05-02T03:50:40.055Z,7.49
2023-05-02T03:53:28.965Z,7.62
2023-05-02T03:56:21.161Z,7.61
2023-05-02T03:59:20.985Z,7.66
2023-05-02T04:02:11.548Z,7.89
2023-05-02T04:05:04.696Z,8.00
2023-05-02T04:07:54.115Z,7.89
2023-05-02T04:10:43.295Z,7.83
2023-05-02T04:13:33.796Z,7.76
2023-05-02T04:16:24.673Z,7.75
2023-05-02T04:19:16.729Z,7.86
2023-05-02T04:22:05.659Z,7.93
2023-05-02T04:24:58.707Z,8.01
2023-05-02T04:27:49.061Z,8.29
2023-05-02T04:30:40.843Z,8.38
2023-05-02T04:33:34.312Z,8.51
2023-05-02T04:36:23.636Z,8.63
2023-05-02T04:39:13.501Z,8.76
2023-05-02T04:42:07.850Z,8.92
2023-05-02T04:45:03.738Z,9.11
2023-05-02T04:47:53.744Z,9.27
2023-05-02T04:50:46.261Z,9.48
2023-05-02T04:53:35.258Z,9.71
2023-05-02T04:56:25.565Z,9.94
2023-05-02T04:59:15.414Z,10.03
2023-05-02T05:02:05.135Z,10.23
2023-05-02T05:04:54.360Z,10.44
2023-05-02T05:07:45.533Z,10.59
2023-05-02T05:10:35.768Z,10.75
2023-05-02T05:13:25.692Z,10.87
2023-05-02T05:16:15.549Z,10.97
2023-05-02T05:19:05.895Z,11.11
2023-05-02T05:21:55.703Z,11.22
2023-05-02T05:24:53.912Z,11.17
2023-05-02T05:27:44.707Z,11.20
2023-05-02T05:30:34.293Z,11.54
2023-05-02T05:33:25.263Z,11.65
2023-05-02T05:36:15.669Z,11.67
2023-05-02T05:39:04.691Z,11.45
2023-05-02T05:41:57.562Z,11.69
2023-05-02T05:44:47.043Z,11.68
2023-05-02T05:47:37.767Z,11.79
2023-05-02T05:50:27.923Z,12.07
2023-05-02T05:53:18.197Z,12.27
2023-05-02T05:56:11.588Z,12.63
2023-05-02T05:59:04.176Z,12.84
2023-05-02T06:01:54.192Z,12.61
2023-05-02T06:04:46.694Z,12.56
2023-05-02T06:07:37.232Z,13.10
2023-05-02T06:10:26.982Z,13.49
2023-05-02T06:13:16.553Z,13.83
2023-05-02T06:16:08.830Z,14.17
2023-05-02T06:18:57.856Z,14.46
2023-05-02T06:21:47.295Z,14.73
2023-05-02T06:24:37.880Z,14.84
2023-05-02T06:27:26.866Z,15.19
2023-05-02T06:30:16.090Z,14.92
2023-05-02T06:33:07.699Z,15.22
2023-05-02T06:35:57.804Z,15.21
2023-05-02T06:38:48.897Z,15.48
2023-05-02T06:41:39.058Z,15.74
2023-05-02T06:44:28.138Z,15.69
2023-05-02T06:47:17.671Z,15.69
2023-05-02T06:50:10.385Z,15.91
2023-05-02T06:52:59.375Z,16.06
2023-05-02T06:55:49.124Z,16.01
2023-05-02T06:58:39.624Z,16.38
2023-05-02T07:01:28.811Z,16.33
2023-05-02T07:04:17.814Z,16.53
2023-05-02T07:07:10.833Z,16.81
2023-05-02T07:10:00.674Z,16.97
2023-05-02T07:12:50.332Z,17.00
2023-05-02T07:15:39.615Z,17.02
2023-05-02T07:18:33.318Z,17.20
2023-05-02T07:21:22.259Z,17.22
2023-05-02T07:24:12.672Z,17.25
2023-05-02T07:28:01.302Z,17.07
2023-05-02T07:30:52.254Z,17.21
2023-05-02T07:33:41.677Z,17.33
2023-05-02T07:36:30.809Z,17.56
2023-05-02T07:39:21.271Z,18.05
2023-05-02T07:42:10.416Z,18.59
2023-05-02T07:45:00.521Z,18.64
2023-05-02T07:47:49.575Z,18.57
2023-05-02T07:50:40.335Z,18.64
2023-05-02T07:53:30.946Z,18.82
2023-05-02T07:56:23.430Z,19.03
2023-05-02T07:59:12.555Z,19.14
2023-05-02T08:02:01.696Z,19.24
2023-05-02T08:04:50.976Z,18.41
2023-05-02T08:07:39.947Z,18.54
2023-05-02T08:10:29.998Z,18.54
2023-05-02T08:13:21.716Z,18.91
2023-05-02T08:16:11.466Z,18.14
2023-05-02T08:19:00.689Z,18.60
2023-05-02T08:21:49.771Z,18.52
2023-05-02T08:24:40.732Z,18.63
2023-05-02T08:27:29.742Z,18.93
2023-05-02T08:30:20.438Z,18.88
2023-05-02T08:33:09.810Z,19.19
2023-05-02T08:35:59.033Z,19.36
2023-05-02T08:38:49.394Z,19.23
2023-05-02T08:41:39.446Z,19.40
2023-05-02T08:44:28.929Z,19.30
2023-05-02T08:47:22.081Z,19.43
2023-05-02T08:50:13.441Z,19.37
2023-05-02T08:53:02.665Z,19.08
2023-05-02T08:55:51.837Z,18.97
2023-05-02T08:58:42.482Z,18.24
2023-05-02T09:01:34.474Z,18.53
2023-05-02T09:04:32.033Z,17.90
2023-05-02T09:07:22.126Z,17.99
2023-05-02T09:10:13.782Z,18.35
2023-05-02T09:13:30.880Z,18.35
2023-05-02T09:16:24.791Z,18.34
2023-05-02T09:19:27.096Z,18.43
2023-05-02T09:22:24.484Z,18.19
2023-05-02T09:25:15.870Z,17.75
2023-05-02T09:28:05.760Z,17.72
2023-05-02T09:31:09.458Z,17.60
2023-05-02T09:34:00.119Z,17.79
2023-05-02T09:36:54.359Z,17.96
2023-05-02T09:40:07.539Z,17.05
2023-05-02T09:42:57.980Z,17.67
2023-05-02T09:45:59.540Z,17.25
2023-05-02T09:48:56.791Z,17.76
2023-05-02T09:51:48.828Z,18.59
2023-05-02T09:54:43.108Z,18.37
2023-05-02T09:57:42.014Z,17.89
2023-05-02T10:00:43.158Z,17.93
2023-05-02T10:03:32.577Z,18.11
2023-05-02T10:06:22.801Z,18.04
2023-05-02T10:09:16.595Z,18.12
2023-05-02T10:12:08.825Z,18.34
2023-05-02T10:15:05.839Z,18.29
2023-05-02T10:17:59.436Z,18.30
2023-05-02T10:20:59.689Z,17.31
2023-05-02T10:23:49.836Z,17.13
2023-05-02T10:26:40.129Z,17.58
2023-05-02T10:29:33.911Z,17.75
2023-05-02T10:32:25.190Z,17.65
2023-05-02T10:35:16.912Z,17.97
2023-05-02T10:38:07.812Z,17.98
2023-05-02T10:41:02.914Z,18.01
2023-05-02T10:43:52.461Z,18.65
2023-05-02T10:46:43.502Z,19.14
2023-05-02T10:49:32.731Z,18.76
2023-05-02T10:52:32.944Z,19.07
2023-05-02T10:55:25.321Z,18.96
2023-05-02T10:58:24.873Z,19.25
2023-05-02T11:01:41.775Z,18.25
2023-05-02T11:05:04.232Z,19.14
2023-05-02T11:08:32.022Z,19.38
2023-05-02T11:11:41.125Z,19.86
2023-05-02T11:14:49.899Z,21.12
2023-05-02T11:18:01.732Z,22.23
2023-05-02T11:20:51.995Z,22.05
2023-05-02T11:23:42.953Z,21.85
2023-05-02T11:26:32.853Z,21.78
2023-05-02T11:29:58.047Z,22.82
2023-05-02T11:33:20.162Z,22.46
2023-05-02T11:36:10.940Z,21.50
2023-05-02T11:39:00.649Z,21.65
2023-05-02T11:41:51.102Z,21.56
2023-05-02T11:44:58.301Z,22.41
2023-05-02T11:47:48.724Z,24.01
2023-05-02T11:50:49.558Z,23.23
2023-05-02T11:53:43.224Z,23.72
2023-05-02T11:56:32.335Z,22.70
2023-05-02T11:59:21.191Z,21.95
2023-05-02T12:02:10.164Z,22.80
2023-05-02T12:04:59.872Z,22.41
2023-05-02T12:07:49.969Z,22.17
2023-05-02T12:10:40.914Z,23.30
2023-05-02T12:13:31.650Z,23.53
2023-05-02T12:16:21.235Z,24.64
2023-05-02T12:19:10.457Z,24.52
2023-05-02T12:22:00.080Z,22.24
2023-05-02T12:24:50.625Z,22.06
2023-05-02T12:27:40.907Z,22.58
2023-05-02T12:30:31.273Z,22.43
2023-05-02T12:33:20.781Z,22.27
2023-05-02T12:36:12.951Z,22.84
2023-05-02T12:39:04.512Z,24.34
2023-05-02T12:41:53.772Z,24.20
2023-05-02T12:44:46.096Z,22.33
2023-05-02T12:47:46.839Z,21.96
2023-05-02T12:50:38.428Z,21.66
2023-05-02T12:53:41.705Z,21.89
2023-05-02T12:56:33.075Z,21.26
2023-05-02T12:59:30.566Z,19.34
2023-05-02T13:02:21.037Z,19.84
2023-05-02T13:05:17.243Z,20.27
2023-05-02T13:08:07.186Z,20.64
2023-05-02T13:10:56.323Z,20.75
2023-05-02T13:13:45.168Z,20.80
2023-05-02T13:16:37.579Z,21.30
2023-05-02T13:19:31.433Z,20.60
2023-05-02T13:22:20.512Z,20.25
2023-05-02T13:25:11.084Z,20.89
2023-05-02T13:28:00.181Z,21.61
2023-05-02T13:30:49.088Z,21.89
2023-05-02T13:33:37.916Z,22.58
2023-05-02T13:36:28.976Z,22.12
2023-05-02T13:39:18.032Z,21.97
2023-05-02T13:42:08.094Z,22.02
2023-05-02T13:44:57.042Z,22.06
2023-05-02T13:47:46.686Z,21.54
2023-05-02T13:50:39.347Z,21.82
2023-05-02T13:53:30.174Z,22.62
2023-05-02T13:56:19.100Z,21.14
2023-05-02T13:59:10.233Z,20.66
2023-05-02T14:02:01.131Z,21.75
2023-05-02T14:04:50.590Z,21.16
2023-05-02T14:07:40.093Z,21.49
2023-05-02T14:10:31.306Z,21.31
2023-05-02T14:13:20.350Z,21.56
2023-05-02T14:26:49.381Z,21.43
2023-05-02T14:29:50.939Z,21.94
2023-05-02T14:32:52.991Z,22.60
2023-05-02T14:36:04.499Z,23.09
2023-05-02T14:39:01.091Z,23.16
2023-05-02T14:41:59.498Z,22.38
2023-05-02T14:44:58.788Z,22.97
2023-05-02T14:47:54.596Z,23.21
2023-05-02T14:50:46.883Z,22.76
2023-05-02T14:53:43.087Z,22.71
2023-05-02T14:56:58.647Z,21.72
2023-05-02T15:00:32.050Z,20.57
2023-05-02T15:03:24.045Z,21.23
2023-05-02T15:06:54.339Z,21.49
2023-05-02T15:09:49.120Z,21.32
2023-05-02T15:12:41.080Z,20.73
2023-05-02T15:15:38.595Z,20.65
2023-05-02T15:18:43.296Z,20.85
2023-05-02T15:21:53.242Z,19.95
2023-05-02T15:24:56.303Z,19.16
2023-05-02T15:28:03.322Z,17.88
2023-05-02T15:31:00.050Z,16.75
2023-05-02T15:33:56.455Z,16.68
2023-05-02T15:36:56.099Z,16.27
2023-05-02T15:40:10.852Z,15.75
2023-05-02T15:43:05.334Z,14.78
2023-05-02T15:46:29.653Z,13.96
2023-05-02T15:49:35.144Z,13.60
2023-05-02T15:52:33.062Z,13.43
2023-05-02T15:55:28.430Z,13.46
2023-05-02T15:58:23.079Z,13.38
2023-05-02T16:01:19.157Z,13.20
2023-05-02T16:04:30.113Z,13.24
2023-05-02T16:07:27.558Z,13.10
2023-05-02T16:10:27.212Z,13.11
2023-05-02T16:13:34.975Z,13.11
2023-05-02T16:16:45.370Z,13.12
2023-05-02T16:19:38.382Z,13.21
2023-05-02T16:22:33.502Z,13.19
2023-05-02T16:25:42.206Z,13.21
2023-05-02T16:28:39.695Z,13.27
2023-05-02T16:31:36.478Z,13.51
2023-05-02T16:34:39.309Z,13.63
2023-05-02T16:37:36.256Z,13.81
2023-05-02T16:40:39.614Z,13.93
2023-05-02T16:43:45.002Z,14.13
2023-05-02T16:46:45.750Z,14.17
2023-05-02T16:49:41.609Z,14.38
2023-05-02T16:52:38.194Z,14.85
2023-05-02T16:55:39.508Z,15.20
2023-05-02T16:58:50.676Z,15.30
2023-05-02T17:02:06.806Z,15.52
2023-05-02T17:05:25.266Z,15.91
2023-05-02T17:08:32.519Z,15.64
2023-05-02T17:12:05.517Z,15.82
2023-05-02T17:15:09.515Z,15.79
2023-05-02T17:18:17.308Z,15.72
2023-05-02T17:21:33.124Z,15.70
2023-05-02T17:24:54.925Z,15.74
2023-05-02T17:27:58.260Z,15.60
2023-05-02T17:31:11.086Z,15.58
2023-05-02T17:34:04.109Z,15.60
2023-05-02T17:36:57.525Z,15.64
2023-05-02T17:39:51.800Z,15.59
2023-05-02T17:42:59.185Z,15.69
2023-05-02T17:46:11.132Z,15.71
2023-05-02T17:49:04.809Z,15.54
2023-05-02T17:52:12.139Z,15.26
2023-05-02T17:55:10.521Z,15.08
2023-05-02T17:58:10.385Z,14.86
2023-05-02T18:01:12.524Z,14.64
2023-05-02T18:04:06.831Z,14.43
2023-05-02T18:07:05.701Z,14.30
2023-05-02T18:10:04.293Z,14.16
2023-05-02T18:13:04.323Z,13.88
2023-05-02T18:16:26.895Z,13.56
2023-05-02T18:19:50.845Z,13.39
2023-05-02T18:26:28.651Z,13.02
2023-05-02T18:29:22.757Z,12.89
2023-05-02T18:32:41.339Z,12.82
2023-05-02T18:36:09.067Z,12.80
2023-05-02T18:42:14.066Z,12.76
2023-05-02T18:45:11.984Z,12.73
2023-05-02T18:48:06.611Z,12.79
2023-05-02T18:51:01.072Z,12.70
2023-05-02T18:53:56.388Z,12.63
2023-05-02T18:56:50.368Z,12.64
2023-05-02T18:59:45.330Z,12.54
2023-05-02T19:02:44.270Z,12.51
2023-05-02T19:05:43.994Z,12.52
2023-05-02T19:08:37.802Z,12.51
2023-05-02T19:11:31.106Z,12.35
2023-05-02T19:14:27.722Z,12.60
2023-05-02T19:17:23.192Z,12.80
2023-05-02T19:20:16.661Z,12.86
2023-05-02T19:23:19.766Z,12.94
2023-05-02T19:26:18.558Z,12.94
2023-05-02T19:29:11.880Z,13.06
2023-05-02T19:32:06.006Z,13.09
2023-05-02T19:35:01.372Z,13.15
2023-05-02T19:38:02.325Z,13.10
2023-05-02T19:41:01.392Z,13.07
2023-05-02T19:43:57.688Z,13.23
2023-05-02T19:46:52.203Z,13.06
2023-05-02T19:49:45.420Z,13.07
2023-05-02T19:52:45.221Z,13.23
2023-05-02T19:55:39.406Z,13.16
2023-05-02T19:58:33.567Z,13.35
2023-05-02T20:01:27.934Z,13.24
2023-05-02T20:04:21.601Z,13.38
2023-05-02T20:07:15.382Z,13.20
2023-05-02T20:10:19.431Z,13.16
2023-05-02T20:13:13.351Z,13.10
2023-05-02T20:16:07.222Z,13.15
2023-05-02T20:19:01.563Z,13.14
2023-05-02T20:21:55.052Z,13.15
2023-05-02T20:24:50.478Z,12.92
2023-05-02T20:27:46.252Z,12.86
2023-05-02T20:30:41.073Z,12.85
2023-05-02T20:33:44.335Z,12.69
2023-05-02T20:36:39.158Z,12.69
2023-05-02T20:39:35.414Z,12.59
2023-05-02T20:42:29.724Z,12.59
2023-05-02T20:45:25.804Z,12.46
2023-05-02T20:48:21.116Z,12.40
2023-05-02T20:51:14.872Z,12.23
2023-05-02T20:54:08.663Z,12.12
2023-05-02T20:57:03.506Z,12.07
2023-05-02T21:00:01.477Z,12.08
2023-05-02T21:02:57.169Z,12.14
2023-05-02T21:05:55.319Z,12.07
2023-05-02T21:08:49.258Z,11.98
2023-05-02T21:11:45.231Z,11.73
2023-05-02T21:14:39.065Z,11.65
2023-05-02T21:17:32.535Z,11.39
2023-05-02T21:20:28.256Z,11.24
2023-05-02T21:23:23.147Z,11.29
2023-05-02T21:26:17.238Z,11.40
2023-05-02T21:29:11.537Z,11.33
2023-05-02T21:32:05.411Z,11.29
2023-05-02T21:34:59.165Z,11.03
2023-05-02T21:37:54.849Z,10.93
2023-05-02T21:40:48.532Z,10.78
2023-05-02T21:43:42.841Z,10.76
2023-05-02T21:46:36.766Z,10.71
2023-05-02T21:49:32.416Z,10.78
2023-05-02T21:52:26.484Z,10.87
2023-05-02T21:55:22.704Z,10.91
2023-05-02T21:58:16.674Z,10.91
2023-05-02T22:01:10.332Z,10.96
2023-05-02T22:04:04.594Z,10.84
2023-05-02T22:06:58.481Z,10.85
2023-05-02T22:09:51.827Z,10.91
2023-05-02T22:12:47.318Z,10.85
2023-05-02T22:15:43.795Z,10.85
2023-05-02T22:18:37.371Z,10.88
2023-05-02T22:21:31.291Z,10.88
2023-05-02T22:24:26.157Z,10.85
2023-05-02T22:27:32.195Z,10.87
2023-05-02T22:30:30.334Z,10.69
2023-05-02T22:33:32.670Z,10.69
2023-05-02T22:36:33.127Z,10.56
2023-05-02T22:39:28.536Z,10.57
2023-05-02T22:42:27.968Z,10.37
2023-05-02T22:45:22.193Z,10.45
2023-05-02T22:48:26.114Z,10.48
2023-05-02T22:51:22.854Z,10.45
2023-05-02T22:54:18.988Z,10.42
2023-05-02T22:57:12.477Z,10.36
2023-05-02T23:00:08.232Z,10.05
2023-05-02T23:03:01.806Z,9.93
2023-05-02T23:05:59.766Z,9.94
2023-05-02T23:08:53.542Z,10.02
2023-05-02T23:11:47.544Z,10.06
2023-05-02T23:14:42.368Z,10.05
2023-05-02T23:17:35.823Z,10.06
2023-05-02T23:20:29.967Z,10.05
2023-05-02T23:23:26.349Z,10.06
2023-05-02T23:26:21.153Z,9.86
2023-05-02T23:29:14.379Z,9.75
2023-05-02T23:32:10.135Z,9.73
2023-05-02T23:35:06.473Z,9.68
2023-05-02T23:38:02.806Z,9.53
2023-05-02T23:40:57.949Z,9.46
2023-05-02T23:43:51.752Z,9.36
2023-05-02T23:46:46.934Z,9.24
2023-05-02T23:49:41.379Z,9.23
2023-05-02T23:52:35.174Z,9.24
2023-05-02T23:55:30.212Z,9.24
2023-05-02T23:58:26.385Z,9.20
